sensor_id;sensor_type;location;lat;lon;timestamp;pressure;altitude;pressure_sealevel;temperature;humidity
37832;BME280;23671;38.090;-122.570;2023-07-29T00:01:58;101385.59;;;29.80;34.96
37832;BME280;23671;38.090;-122.570;2023-07-29T00:04:25;101386.66;;;29.79;34.63
37832;BME280;23671;38.090;-122.570;2023-07-29T00:06:56;101380.38;;;29.78;34.45
37832;BME280;23671;38.090;-122.570;2023-07-29T00:09:29;101380.63;;;29.77;34.16
37832;BME280;23671;38.090;-122.570;2023-07-29T00:11:56;101372.44;;;29.77;34.43
37832;BME280;23671;38.090;-122.570;2023-07-29T00:14:26;101377.91;;;29.77;33.88
37832;BME280;23671;38.090;-122.570;2023-07-29T00:17:12;101370.78;;;29.76;33.72
37832;BME280;23671;38.090;-122.570;2023-07-29T00:19:48;101376.47;;;29.74;34.55
37832;BME280;23671;38.090;-122.570;2023-07-29T00:22:15;101371.63;;;29.76;34.38
37832;BME280;23671;38.090;-122.570;2023-07-29T00:24:42;101372.91;;;29.74;34.11
37832;BME280;23671;38.090;-122.570;2023-07-29T00:27:12;101375.63;;;29.74;34.10
37832;BME280;23671;38.090;-122.570;2023-07-29T00:29:40;101371.25;;;29.73;34.65
37832;BME280;23671;38.090;-122.570;2023-07-29T00:32:07;101372.91;;;29.74;34.46
37832;BME280;23671;38.090;-122.570;2023-07-29T00:34:34;101365.19;;;29.71;34.31
37832;BME280;23671;38.090;-122.570;2023-07-29T00:37:01;101362.69;;;29.69;34.53
37832;BME280;23671;38.090;-122.570;2023-07-29T00:39:28;101368.13;;;29.69;33.86
37832;BME280;23671;38.090;-122.570;2023-07-29T00:41:55;101372.75;;;29.69;33.94
37832;BME280;23671;38.090;-122.570;2023-07-29T00:44:22;101373.81;;;29.68;34.24
37832;BME280;23671;38.090;-122.570;2023-07-29T00:46:53;101374.25;;;29.65;34.45
37832;BME280;23671;38.090;-122.570;2023-07-29T00:49:30;101374.50;;;29.63;34.15
37832;BME280;23671;38.090;-122.570;2023-07-29T00:52:00;101367.16;;;29.64;33.84
37832;BME280;23671;38.090;-122.570;2023-07-29T00:54:27;101368.44;;;29.61;33.66
37832;BME280;23671;38.090;-122.570;2023-07-29T00:56:55;101367.00;;;29.58;33.94
37832;BME280;23671;38.090;-122.570;2023-07-29T00:59:31;101362.03;;;29.55;34.18
37832;BME280;23671;38.090;-122.570;2023-07-29T01:01:58;101359.56;;;29.54;33.93
37832;BME280;23671;38.090;-122.570;2023-07-29T01:04:44;101364.59;;;29.50;34.07
37832;BME280;23671;38.090;-122.570;2023-07-29T01:10:03;101367.78;;;29.47;33.54
37832;BME280;23671;38.090;-122.570;2023-07-29T01:18:26;101363.97;;;29.37;33.59
37832;BME280;23671;38.090;-122.570;2023-07-29T01:20:56;101357.53;;;29.31;33.48
37832;BME280;23671;38.090;-122.570;2023-07-29T01:23:33;101366.16;;;29.28;33.14
37832;BME280;23671;38.090;-122.570;2023-07-29T01:26:01;101367.19;;;29.27;33.25
37832;BME280;23671;38.090;-122.570;2023-07-29T01:28:29;101367.28;;;29.21;33.20
37832;BME280;23671;38.090;-122.570;2023-07-29T01:31:26;101363.97;;;29.19;33.19
37832;BME280;23671;38.090;-122.570;2023-07-29T01:34:26;101373.63;;;29.15;33.53
37832;BME280;23671;38.090;-122.570;2023-07-29T01:37:00;101368.63;;;29.12;33.04
37832;BME280;23671;38.090;-122.570;2023-07-29T01:39:32;101376.38;;;29.08;32.49
37832;BME280;23671;38.090;-122.570;2023-07-29T01:42:02;101375.41;;;29.03;32.29
37832;BME280;23671;38.090;-122.570;2023-07-29T01:44:30;101369.47;;;28.94;32.43
37832;BME280;23671;38.090;-122.570;2023-07-29T01:46:57;101374.28;;;28.92;32.13
37832;BME280;23671;38.090;-122.570;2023-07-29T01:49:25;101364.53;;;28.85;31.93
37832;BME280;23671;38.090;-122.570;2023-07-29T01:51:54;101371.47;;;28.81;31.70
37832;BME280;23671;38.090;-122.570;2023-07-29T01:54:22;101376.97;;;28.74;31.71
37832;BME280;23671;38.090;-122.570;2023-07-29T01:56:50;101377.44;;;28.71;31.50
37832;BME280;23671;38.090;-122.570;2023-07-29T01:59:17;101380.81;;;28.66;31.35
37832;BME280;23671;38.090;-122.570;2023-07-29T02:01:44;101378.97;;;28.60;31.23
37832;BME280;23671;38.090;-122.570;2023-07-29T02:04:13;101374.22;;;28.56;31.40
37832;BME280;23671;38.090;-122.570;2023-07-29T02:06:40;101372.97;;;28.52;31.03
37832;BME280;23671;38.090;-122.570;2023-07-29T02:09:07;101376.59;;;28.46;31.24
37832;BME280;23671;38.090;-122.570;2023-07-29T02:11:42;101378.09;;;28.42;31.19
37832;BME280;23671;38.090;-122.570;2023-07-29T02:14:11;101395.88;;;28.38;31.14
37832;BME280;23671;38.090;-122.570;2023-07-29T02:16:38;101385.28;;;28.30;31.18
37832;BME280;23671;38.090;-122.570;2023-07-29T02:19:07;101393.88;;;28.27;30.86
37832;BME280;23671;38.090;-122.570;2023-07-29T02:21:37;101396.03;;;28.18;31.05
37832;BME280;23671;38.090;-122.570;2023-07-29T02:24:07;101391.25;;;28.14;31.16
37832;BME280;23671;38.090;-122.570;2023-07-29T02:26:34;101396.28;;;28.10;31.04
37832;BME280;23671;38.090;-122.570;2023-07-29T02:29:04;101393.63;;;28.04;30.81
37832;BME280;23671;38.090;-122.570;2023-07-29T02:31:31;101395.72;;;28.02;31.14
37832;BME280;23671;38.090;-122.570;2023-07-29T02:34:01;101406.63;;;27.95;31.02
37832;BME280;23671;38.090;-122.570;2023-07-29T02:36:30;101409.34;;;27.88;30.80
37832;BME280;23671;38.090;-122.570;2023-07-29T02:39:02;101416.28;;;27.84;30.75
37832;BME280;23671;38.090;-122.570;2023-07-29T02:41:32;101426.94;;;27.79;30.88
37832;BME280;23671;38.090;-122.570;2023-07-29T02:44:01;101419.44;;;27.75;30.54
37832;BME280;23671;38.090;-122.570;2023-07-29T02:46:35;101418.41;;;27.69;30.26
37832;BME280;23671;38.090;-122.570;2023-07-29T02:49:03;101419.91;;;27.65;30.33
37832;BME280;23671;38.090;-122.570;2023-07-29T02:51:31;101421.19;;;27.56;30.59
37832;BME280;23671;38.090;-122.570;2023-07-29T02:54:00;101422.06;;;27.50;30.50
37832;BME280;23671;38.090;-122.570;2023-07-29T02:56:32;101420.81;;;27.46;30.37
37832;BME280;23671;38.090;-122.570;2023-07-29T02:59:00;101425.22;;;27.41;30.75
37832;BME280;23671;38.090;-122.570;2023-07-29T03:01:30;101427.97;;;27.34;30.85
37832;BME280;23671;38.090;-122.570;2023-07-29T03:03:58;101421.47;;;27.29;30.24
37832;BME280;23671;38.090;-122.570;2023-07-29T03:06:25;101422.34;;;27.23;31.22
37832;BME280;23671;38.090;-122.570;2023-07-29T03:08:55;101432.13;;;27.17;30.82
37832;BME280;23671;38.090;-122.570;2023-07-29T03:11:22;101428.22;;;27.13;31.01
37832;BME280;23671;38.090;-122.570;2023-07-29T03:13:50;101426.13;;;27.09;30.64
37832;BME280;23671;38.090;-122.570;2023-07-29T03:16:18;101436.75;;;27.04;31.16
37832;BME280;23671;38.090;-122.570;2023-07-29T03:18:45;101433.84;;;26.98;31.16
37832;BME280;23671;38.090;-122.570;2023-07-29T03:21:12;101428.84;;;26.89;31.13
37832;BME280;23671;38.090;-122.570;2023-07-29T03:23:40;101435.97;;;26.83;31.41
37832;BME280;23671;38.090;-122.570;2023-07-29T03:26:07;101434.28;;;26.76;31.34
37832;BME280;23671;38.090;-122.570;2023-07-29T03:28:43;101429.72;;;26.70;31.24
37832;BME280;23671;38.090;-122.570;2023-07-29T03:31:11;101439.25;;;26.66;31.74
37832;BME280;23671;38.090;-122.570;2023-07-29T03:33:38;101431.13;;;26.59;31.71
37832;BME280;23671;38.090;-122.570;2023-07-29T03:36:06;101441.97;;;26.53;31.33
37832;BME280;23671;38.090;-122.570;2023-07-29T03:38:33;101454.06;;;26.44;31.27
37832;BME280;23671;38.090;-122.570;2023-07-29T03:41:01;101454.47;;;26.41;31.62
37832;BME280;23671;38.090;-122.570;2023-07-29T03:43:36;101459.66;;;26.29;31.68
37832;BME280;23671;38.090;-122.570;2023-07-29T03:46:03;101456.13;;;26.22;31.99
37832;BME280;23671;38.090;-122.570;2023-07-29T03:48:31;101457.13;;;26.15;31.44
37832;BME280;23671;38.090;-122.570;2023-07-29T03:51:08;101454.78;;;26.05;31.50
37832;BME280;23671;38.090;-122.570;2023-07-29T03:53:35;101458.69;;;25.96;31.62
37832;BME280;23671;38.090;-122.570;2023-07-29T03:56:02;101454.31;;;25.88;31.66
37832;BME280;23671;38.090;-122.570;2023-07-29T03:58:29;101457.81;;;25.82;32.11
37832;BME280;23671;38.090;-122.570;2023-07-29T04:00:56;101461.16;;;25.78;32.13
37832;BME280;23671;38.090;-122.570;2023-07-29T04:03:23;101459.00;;;25.67;31.95
37832;BME280;23671;38.090;-122.570;2023-07-29T04:05:53;101466.06;;;25.61;32.09
37832;BME280;23671;38.090;-122.570;2023-07-29T04:08:21;101459.78;;;25.54;32.07
37832;BME280;23671;38.090;-122.570;2023-07-29T04:10:50;101467.06;;;25.47;31.94
37832;BME280;23671;38.090;-122.570;2023-07-29T04:13:18;101469.03;;;25.39;32.59
37832;BME280;23671;38.090;-122.570;2023-07-29T04:15:45;101474.81;;;25.29;32.38
37832;BME280;23671;38.090;-122.570;2023-07-29T04:18:13;101473.94;;;25.22;32.19
37832;BME280;23671;38.090;-122.570;2023-07-29T04:20:40;101484.06;;;25.13;32.33
37832;BME280;23671;38.090;-122.570;2023-07-29T04:23:07;101481.50;;;25.05;32.32
37832;BME280;23671;38.090;-122.570;2023-07-29T04:25:34;101480.63;;;24.98;32.42
37832;BME280;23671;38.090;-122.570;2023-07-29T04:28:01;101484.31;;;24.91;32.36
37832;BME280;23671;38.090;-122.570;2023-07-29T04:30:29;101494.03;;;24.85;32.84
37832;BME280;23671;38.090;-122.570;2023-07-29T04:32:56;101489.41;;;24.79;32.79
37832;BME280;23671;38.090;-122.570;2023-07-29T04:35:26;101495.31;;;24.68;32.61
37832;BME280;23671;38.090;-122.570;2023-07-29T04:37:53;101506.88;;;24.62;32.95
37832;BME280;23671;38.090;-122.570;2023-07-29T04:40:20;101511.56;;;24.54;32.88
37832;BME280;23671;38.090;-122.570;2023-07-29T04:42:49;101502.13;;;24.43;32.99
37832;BME280;23671;38.090;-122.570;2023-07-29T04:45:16;101501.66;;;24.40;32.78
37832;BME280;23671;38.090;-122.570;2023-07-29T04:47:43;101514.47;;;24.31;33.02
37832;BME280;23671;38.090;-122.570;2023-07-29T04:50:10;101504.81;;;24.22;33.02
37832;BME280;23671;38.090;-122.570;2023-07-29T04:52:37;101498.47;;;24.15;33.26
37832;BME280;23671;38.090;-122.570;2023-07-29T04:55:05;101504.28;;;24.12;33.04
37832;BME280;23671;38.090;-122.570;2023-07-29T04:57:32;101504.59;;;24.02;33.25
37832;BME280;23671;38.090;-122.570;2023-07-29T05:00:02;101504.25;;;23.97;33.46
37832;BME280;23671;38.090;-122.570;2023-07-29T05:02:30;101511.81;;;23.87;33.47
37832;BME280;23671;38.090;-122.570;2023-07-29T05:04:57;101510.91;;;23.80;33.57
37832;BME280;23671;38.090;-122.570;2023-07-29T05:07:24;101509.78;;;23.75;33.50
37832;BME280;23671;38.090;-122.570;2023-07-29T05:09:51;101506.19;;;23.68;33.45
37832;BME280;23671;38.090;-122.570;2023-07-29T05:12:20;101502.72;;;23.59;33.62
37832;BME280;23671;38.090;-122.570;2023-07-29T05:14:47;101507.47;;;23.57;33.70
37832;BME280;23671;38.090;-122.570;2023-07-29T05:17:14;101521.34;;;23.54;33.75
37832;BME280;23671;38.090;-122.570;2023-07-29T05:19:42;101520.59;;;23.45;33.99
37832;BME280;23671;38.090;-122.570;2023-07-29T05:22:09;101518.44;;;23.41;33.88
37832;BME280;23671;38.090;-122.570;2023-07-29T05:24:36;101522.72;;;23.35;33.99
37832;BME280;23671;38.090;-122.570;2023-07-29T05:27:04;101524.94;;;23.32;33.95
37832;BME280;23671;38.090;-122.570;2023-07-29T05:29:31;101515.25;;;23.23;34.29
37832;BME280;23671;38.090;-122.570;2023-07-29T05:31:58;101518.47;;;23.18;34.23
37832;BME280;23671;38.090;-122.570;2023-07-29T05:34:25;101513.66;;;23.14;34.25
37832;BME280;23671;38.090;-122.570;2023-07-29T05:36:52;101519.59;;;23.09;34.32
37832;BME280;23671;38.090;-122.570;2023-07-29T05:39:19;101509.34;;;23.05;34.46
37832;BME280;23671;38.090;-122.570;2023-07-29T05:41:46;101509.25;;;22.98;34.39
37832;BME280;23671;38.090;-122.570;2023-07-29T05:44:13;101503.75;;;22.92;34.53
37832;BME280;23671;38.090;-122.570;2023-07-29T05:46:41;101497.91;;;22.88;34.46
37832;BME280;23671;38.090;-122.570;2023-07-29T05:49:08;101501.13;;;22.84;34.52
37832;BME280;23671;38.090;-122.570;2023-07-29T05:51:35;101496.47;;;22.78;34.76
37832;BME280;23671;38.090;-122.570;2023-07-29T05:54:02;101504.25;;;22.73;34.71
37832;BME280;23671;38.090;-122.570;2023-07-29T05:56:29;101503.13;;;22.67;34.78
37832;BME280;23671;38.090;-122.570;2023-07-29T05:58:58;101509.41;;;22.60;34.96
37832;BME280;23671;38.090;-122.570;2023-07-29T06:01:25;101502.03;;;22.53;34.85
37832;BME280;23671;38.090;-122.570;2023-07-29T06:03:55;101498.38;;;22.46;34.83
37832;BME280;23671;38.090;-122.570;2023-07-29T06:06:22;101495.19;;;22.43;35.03
37832;BME280;23671;38.090;-122.570;2023-07-29T06:08:52;101502.31;;;22.36;35.02
37832;BME280;23671;38.090;-122.570;2023-07-29T06:11:19;101508.41;;;22.30;35.23
37832;BME280;23671;38.090;-122.570;2023-07-29T06:13:47;101509.97;;;22.24;35.06
37832;BME280;23671;38.090;-122.570;2023-07-29T06:16:14;101507.97;;;22.18;35.30
37832;BME280;23671;38.090;-122.570;2023-07-29T06:18:41;101505.00;;;22.13;35.31
37832;BME280;23671;38.090;-122.570;2023-07-29T06:21:08;101506.53;;;22.08;35.36
37832;BME280;23671;38.090;-122.570;2023-07-29T06:23:38;101512.63;;;22.02;35.57
37832;BME280;23671;38.090;-122.570;2023-07-29T06:26:06;101519.34;;;21.98;35.41
37832;BME280;23671;38.090;-122.570;2023-07-29T06:28:33;101520.91;;;21.92;35.54
37832;BME280;23671;38.090;-122.570;2023-07-29T06:31:02;101513.53;;;21.86;35.49
37832;BME280;23671;38.090;-122.570;2023-07-29T06:33:30;101518.44;;;21.83;35.72
37832;BME280;23671;38.090;-122.570;2023-07-29T06:35:57;101517.41;;;21.76;35.73
37832;BME280;23671;38.090;-122.570;2023-07-29T06:38:24;101515.91;;;21.73;35.72
37832;BME280;23671;38.090;-122.570;2023-07-29T06:40:51;101523.47;;;21.69;35.74
37832;BME280;23671;38.090;-122.570;2023-07-29T06:43:19;101522.66;;;21.69;35.83
37832;BME280;23671;38.090;-122.570;2023-07-29T06:45:46;101522.31;;;21.64;35.77
37832;BME280;23671;38.090;-122.570;2023-07-29T06:48:13;101523.19;;;21.56;35.95
37832;BME280;23671;38.090;-122.570;2023-07-29T06:50:40;101526.41;;;21.52;35.94
37832;BME280;23671;38.090;-122.570;2023-07-29T06:53:07;101518.00;;;21.47;36.04
37832;BME280;23671;38.090;-122.570;2023-07-29T06:55:34;101527.09;;;21.46;35.88
37832;BME280;23671;38.090;-122.570;2023-07-29T06:58:01;101522.41;;;21.40;36.04
37832;BME280;23671;38.090;-122.570;2023-07-29T07:00:28;101536.50;;;21.34;36.28
37832;BME280;23671;38.090;-122.570;2023-07-29T07:02:56;101539.19;;;21.34;36.12
37832;BME280;23671;38.090;-122.570;2023-07-29T07:05:26;101536.19;;;21.29;36.19
37832;BME280;23671;38.090;-122.570;2023-07-29T07:07:53;101540.22;;;21.25;36.42
37832;BME280;23671;38.090;-122.570;2023-07-29T07:10:20;101536.22;;;21.21;36.33
37832;BME280;23671;38.090;-122.570;2023-07-29T07:12:47;101537.38;;;21.18;36.38
37832;BME280;23671;38.090;-122.570;2023-07-29T07:15:15;101532.50;;;21.14;36.40
37832;BME280;23671;38.090;-122.570;2023-07-29T07:17:42;101534.69;;;21.10;36.48
37832;BME280;23671;38.090;-122.570;2023-07-29T07:20:09;101535.84;;;21.08;36.44
37832;BME280;23671;38.090;-122.570;2023-07-29T07:22:37;101546.09;;;21.04;36.57
37832;BME280;23671;38.090;-122.570;2023-07-29T07:25:04;101542.03;;;21.00;36.59
37832;BME280;23671;38.090;-122.570;2023-07-29T07:27:31;101541.56;;;20.97;36.61
37832;BME280;23671;38.090;-122.570;2023-07-29T07:29:58;101539.41;;;20.92;36.70
37832;BME280;23671;38.090;-122.570;2023-07-29T07:32:26;101530.81;;;20.89;36.72
37832;BME280;23671;38.090;-122.570;2023-07-29T07:34:53;101528.47;;;20.86;36.66
37832;BME280;23671;38.090;-122.570;2023-07-29T07:37:23;101530.84;;;20.80;36.73
37832;BME280;23671;38.090;-122.570;2023-07-29T07:39:50;101527.97;;;20.74;36.76
37832;BME280;23671;38.090;-122.570;2023-07-29T07:42:17;101536.19;;;20.72;36.92
37832;BME280;23671;38.090;-122.570;2023-07-29T07:44:47;101533.81;;;20.69;36.90
37832;BME280;23671;38.090;-122.570;2023-07-29T07:47:14;101530.81;;;20.64;37.08
37832;BME280;23671;38.090;-122.570;2023-07-29T07:49:41;101532.16;;;20.60;36.92
37832;BME280;23671;38.090;-122.570;2023-07-29T07:52:08;101529.44;;;20.52;37.29
37832;BME280;23671;38.090;-122.570;2023-07-29T07:54:35;101528.28;;;20.47;37.33
37832;BME280;23671;38.090;-122.570;2023-07-29T07:57:02;101542.84;;;20.44;37.24
37832;BME280;23671;38.090;-122.570;2023-07-29T07:59:29;101545.69;;;20.43;37.31
37832;BME280;23671;38.090;-122.570;2023-07-29T08:01:56;101545.19;;;20.39;37.34
37832;BME280;23671;38.090;-122.570;2023-07-29T08:04:24;101549.22;;;20.35;37.27
37832;BME280;23671;38.090;-122.570;2023-07-29T08:06:51;101546.03;;;20.32;37.42
37832;BME280;23671;38.090;-122.570;2023-07-29T08:09:18;101544.50;;;20.29;37.44
37832;BME280;23671;38.090;-122.570;2023-07-29T08:11:45;101551.03;;;20.27;37.49
37832;BME280;23671;38.090;-122.570;2023-07-29T08:14:12;101544.47;;;20.21;37.52
37832;BME280;23671;38.090;-122.570;2023-07-29T08:16:39;101546.34;;;20.21;37.47
37832;BME280;23671;38.090;-122.570;2023-07-29T08:19:06;101546.94;;;20.15;37.74
37832;BME280;23671;38.090;-122.570;2023-07-29T08:21:36;101541.22;;;20.10;37.67
37832;BME280;23671;38.090;-122.570;2023-07-29T08:24:03;101543.38;;;20.06;37.69
37832;BME280;23671;38.090;-122.570;2023-07-29T08:26:30;101536.66;;;20.02;37.87
37832;BME280;23671;38.090;-122.570;2023-07-29T08:28:57;101538.84;;;19.99;37.91
37832;BME280;23671;38.090;-122.570;2023-07-29T08:31:24;101531.13;;;19.96;37.83
37832;BME280;23671;38.090;-122.570;2023-07-29T08:33:51;101526.09;;;19.92;37.84
37832;BME280;23671;38.090;-122.570;2023-07-29T08:36:18;101525.41;;;19.90;37.86
37832;BME280;23671;38.090;-122.570;2023-07-29T08:38:46;101520.53;;;19.86;37.73
37832;BME280;23671;38.090;-122.570;2023-07-29T08:44:26;101516.81;;;19.79;37.93
37832;BME280;23671;38.090;-122.570;2023-07-29T08:47:02;101525.19;;;19.76;38.16
37832;BME280;23671;38.090;-122.570;2023-07-29T08:49:33;101522.13;;;19.71;38.34
37832;BME280;23671;38.090;-122.570;2023-07-29T08:52:00;101526.81;;;19.69;38.19
37832;BME280;23671;38.090;-122.570;2023-07-29T08:54:28;101516.59;;;19.64;38.29
37832;BME280;23671;38.090;-122.570;2023-07-29T08:56:55;101525.09;;;19.60;38.38
37832;BME280;23671;38.090;-122.570;2023-07-29T08:59:23;101514.84;;;19.55;38.14
37832;BME280;23671;38.090;-122.570;2023-07-29T09:01:50;101506.00;;;19.55;38.28
37832;BME280;23671;38.090;-122.570;2023-07-29T09:04:22;101523.06;;;19.54;38.35
37832;BME280;23671;38.090;-122.570;2023-07-29T09:06:51;101511.13;;;19.48;38.50
37832;BME280;23671;38.090;-122.570;2023-07-29T09:09:21;101494.88;;;19.42;38.46
37832;BME280;23671;38.090;-122.570;2023-07-29T09:11:51;101507.59;;;19.40;38.60
37832;BME280;23671;38.090;-122.570;2023-07-29T09:14:19;101498.88;;;19.38;38.56
37832;BME280;23671;38.090;-122.570;2023-07-29T09:16:46;101498.03;;;19.37;38.70
37832;BME280;23671;38.090;-122.570;2023-07-29T09:19:16;101501.47;;;19.30;38.60
37832;BME280;23671;38.090;-122.570;2023-07-29T09:21:47;101499.78;;;19.29;38.78
37832;BME280;23671;38.090;-122.570;2023-07-29T09:24:17;101500.28;;;19.24;39.00
37832;BME280;23671;38.090;-122.570;2023-07-29T09:26:50;101496.22;;;19.20;38.81
37832;BME280;23671;38.090;-122.570;2023-07-29T09:29:27;101496.53;;;19.17;39.18
37832;BME280;23671;38.090;-122.570;2023-07-29T09:31:54;101496.69;;;19.16;39.22
37832;BME280;23671;38.090;-122.570;2023-07-29T09:34:44;101495.16;;;19.13;39.13
37832;BME280;23671;38.090;-122.570;2023-07-29T09:37:24;101490.81;;;19.12;39.01
37832;BME280;23671;38.090;-122.570;2023-07-29T09:39:52;101492.97;;;19.09;39.03
37832;BME280;23671;38.090;-122.570;2023-07-29T09:42:20;101495.81;;;19.07;39.20
37832;BME280;23671;38.090;-122.570;2023-07-29T09:44:50;101493.44;;;19.04;39.06
37832;BME280;23671;38.090;-122.570;2023-07-29T09:47:24;101486.53;;;19.01;39.19
37832;BME280;23671;38.090;-122.570;2023-07-29T09:49:52;101487.72;;;18.99;39.13
37832;BME280;23671;38.090;-122.570;2023-07-29T09:52:24;101482.81;;;18.94;39.21
37832;BME280;23671;38.090;-122.570;2023-07-29T09:54:51;101492.69;;;18.94;39.28
37832;BME280;23671;38.090;-122.570;2023-07-29T09:57:19;101491.31;;;18.90;39.38
37832;BME280;23671;38.090;-122.570;2023-07-29T09:59:54;101491.47;;;18.88;39.35
37832;BME280;23671;38.090;-122.570;2023-07-29T10:02:21;101489.25;;;18.84;39.37
37832;BME280;23671;38.090;-122.570;2023-07-29T10:04:49;101488.44;;;18.83;39.37
37832;BME280;23671;38.090;-122.570;2023-07-29T10:07:16;101483.38;;;18.80;39.53
37832;BME280;23671;38.090;-122.570;2023-07-29T10:09:45;101493.41;;;18.78;39.49
37832;BME280;23671;38.090;-122.570;2023-07-29T10:12:12;101497.53;;;18.73;39.67
37832;BME280;23671;38.090;-122.570;2023-07-29T10:14:40;101490.34;;;18.73;39.45
37832;BME280;23671;38.090;-122.570;2023-07-29T10:17:07;101490.13;;;18.67;39.51
37832;BME280;23671;38.090;-122.570;2023-07-29T10:19:35;101502.69;;;18.66;39.48
37832;BME280;23671;38.090;-122.570;2023-07-29T10:22:06;101492.59;;;18.60;39.81
37832;BME280;23671;38.090;-122.570;2023-07-29T10:24:34;101499.09;;;18.58;39.59
37832;BME280;23671;38.090;-122.570;2023-07-29T10:27:02;101492.06;;;18.57;39.72
37832;BME280;23671;38.090;-122.570;2023-07-29T10:29:33;101506.75;;;18.53;39.79
37832;BME280;23671;38.090;-122.570;2023-07-29T10:32:05;101500.03;;;18.49;39.69
37832;BME280;23671;38.090;-122.570;2023-07-29T10:34:33;101504.50;;;18.48;39.77
37832;BME280;23671;38.090;-122.570;2023-07-29T10:37:03;101496.81;;;18.45;39.68
37832;BME280;23671;38.090;-122.570;2023-07-29T10:39:40;101494.72;;;18.39;39.87
37832;BME280;23671;38.090;-122.570;2023-07-29T10:42:09;101502.03;;;18.37;39.72
37832;BME280;23671;38.090;-122.570;2023-07-29T10:47:16;101498.00;;;18.33;39.92
37832;BME280;23671;38.090;-122.570;2023-07-29T10:49:44;101509.81;;;18.31;40.02
37832;BME280;23671;38.090;-122.570;2023-07-29T10:52:30;101502.25;;;18.26;40.08
37832;BME280;23671;38.090;-122.570;2023-07-29T10:54:57;101501.59;;;18.24;39.87
37832;BME280;23671;38.090;-122.570;2023-07-29T10:57:37;101510.03;;;18.20;40.09
37832;BME280;23671;38.090;-122.570;2023-07-29T11:00:07;101507.53;;;18.18;40.04
37832;BME280;23671;38.090;-122.570;2023-07-29T11:02:38;101506.16;;;18.14;39.92
37832;BME280;23671;38.090;-122.570;2023-07-29T11:05:23;101496.75;;;18.10;40.30
37832;BME280;23671;38.090;-122.570;2023-07-29T11:07:51;101507.44;;;18.10;40.01
37832;BME280;23671;38.090;-122.570;2023-07-29T11:10:18;101490.03;;;18.06;40.08
37832;BME280;23671;38.090;-122.570;2023-07-29T11:12:52;101484.97;;;18.03;40.13
37832;BME280;23671;38.090;-122.570;2023-07-29T11:15:25;101498.47;;;18.01;40.42
37832;BME280;23671;38.090;-122.570;2023-07-29T11:18:02;101491.06;;;17.95;40.39
37832;BME280;23671;38.090;-122.570;2023-07-29T11:20:31;101478.97;;;17.91;40.41
37832;BME280;23671;38.090;-122.570;2023-07-29T11:23:01;101495.31;;;17.88;40.36
37832;BME280;23671;38.090;-122.570;2023-07-29T11:25:30;101493.78;;;17.86;40.48
37832;BME280;23671;38.090;-122.570;2023-07-29T11:27:59;101506.59;;;17.82;40.44
37832;BME280;23671;38.090;-122.570;2023-07-29T11:30:26;101500.56;;;17.80;40.73
37832;BME280;23671;38.090;-122.570;2023-07-29T11:32:55;101510.72;;;17.77;40.73
37832;BME280;23671;38.090;-122.570;2023-07-29T11:35:22;101512.84;;;17.73;40.41
37832;BME280;23671;38.090;-122.570;2023-07-29T11:37:51;101518.34;;;17.72;40.75
37832;BME280;23671;38.090;-122.570;2023-07-29T11:40:20;101523.00;;;17.70;40.48
37832;BME280;23671;38.090;-122.570;2023-07-29T11:42:48;101509.22;;;17.65;40.64
37832;BME280;23671;38.090;-122.570;2023-07-29T11:45:20;101523.44;;;17.65;40.43
37832;BME280;23671;38.090;-122.570;2023-07-29T11:47:47;101522.47;;;17.57;40.70
37832;BME280;23671;38.090;-122.570;2023-07-29T11:50:15;101514.59;;;17.55;40.75
37832;BME280;23671;38.090;-122.570;2023-07-29T11:52:44;101523.78;;;17.53;40.60
37832;BME280;23671;38.090;-122.570;2023-07-29T11:55:13;101519.41;;;17.52;40.94
37832;BME280;23671;38.090;-122.570;2023-07-29T11:57:41;101523.31;;;17.48;40.63
37832;BME280;23671;38.090;-122.570;2023-07-29T12:00:10;101523.63;;;17.45;40.62
37832;BME280;23671;38.090;-122.570;2023-07-29T12:02:41;101523.06;;;17.41;40.62
37832;BME280;23671;38.090;-122.570;2023-07-29T12:05:11;101528.53;;;17.40;40.79
37832;BME280;23671;38.090;-122.570;2023-07-29T12:07:43;101520.28;;;17.33;41.16
37832;BME280;23671;38.090;-122.570;2023-07-29T12:10:11;101521.41;;;17.31;40.99
37832;BME280;23671;38.090;-122.570;2023-07-29T12:12:48;101516.38;;;17.27;40.78
37832;BME280;23671;38.090;-122.570;2023-07-29T12:15:29;101525.34;;;17.26;40.88
37832;BME280;23671;38.090;-122.570;2023-07-29T12:17:59;101533.78;;;17.22;41.06
37832;BME280;23671;38.090;-122.570;2023-07-29T12:20:28;101522.28;;;17.21;41.03
37832;BME280;23671;38.090;-122.570;2023-07-29T12:22:59;101522.84;;;17.15;41.03
37832;BME280;23671;38.090;-122.570;2023-07-29T12:25:31;101537.06;;;17.16;41.15
37832;BME280;23671;38.090;-122.570;2023-07-29T12:28:08;101527.75;;;17.10;41.26
37832;BME280;23671;38.090;-122.570;2023-07-29T12:30:41;101528.75;;;17.09;40.96
37832;BME280;23671;38.090;-122.570;2023-07-29T12:33:08;101537.19;;;17.05;41.44
37832;BME280;23671;38.090;-122.570;2023-07-29T12:35:38;101541.00;;;17.02;41.54
37832;BME280;23671;38.090;-122.570;2023-07-29T12:38:06;101537.75;;;16.99;41.12
37832;BME280;23671;38.090;-122.570;2023-07-29T12:40:33;101543.53;;;16.94;41.56
37832;BME280;23671;38.090;-122.570;2023-07-29T12:43:04;101544.50;;;16.93;41.62
37832;BME280;23671;38.090;-122.570;2023-07-29T12:45:36;101547.63;;;16.89;41.45